sensor_id;sensor_type;location;lat;lon;timestamp;pressure;altitude;pressure_sealevel;temperature;humidity
2178;BME280;1095;50.992;6.798;2024-03-25T00:01:14;100243.69;;;5.03;88.08
2178;BME280;1095;50.992;6.798;2024-03-25T00:03:41;100228.72;;;4.93;88.32
2178;BME280;1095;50.992;6.798;2024-03-25T00:06:08;100222.44;;;4.82;88.92
2178;BME280;1095;50.992;6.798;2024-03-25T00:08:35;100235.75;;;4.79;89.42
2178;BME280;1095;50.992;6.798;2024-03-25T00:11:00;100243.63;;;4.79;89.19
2178;BME280;1095;50.992;6.798;2024-03-25T00:13:30;100249.31;;;4.73;89.40
2178;BME280;1095;50.992;6.798;2024-03-25T00:15:58;100250.53;;;4.68;89.88
2178;BME280;1095;50.992;6.798;2024-03-25T00:18:25;100246.56;;;4.62;90.62
2178;BME280;1095;50.992;6.798;2024-03-25T00:20:50;100252.66;;;4.63;90.52
2178;BME280;1095;50.992;6.798;2024-03-25T00:23:18;100254.13;;;4.67;90.33
2178;BME280;1095;50.992;6.798;2024-03-25T00:25:46;100252.44;;;4.66;90.56
2178;BME280;1095;50.992;6.798;2024-03-25T00:28:12;100249.50;;;4.70;90.12
2178;BME280;1095;50.992;6.798;2024-03-25T00:30:38;100244.47;;;4.67;90.20
2178;BME280;1095;50.992;6.798;2024-03-25T00:33:05;100252.34;;;4.67;90.13
2178;BME280;1095;50.992;6.798;2024-03-25T00:35:31;100242.38;;;4.72;89.80
2178;BME280;1095;50.992;6.798;2024-03-25T00:38:01;100239.97;;;4.69;90.52
2178;BME280;1095;50.992;6.798;2024-03-25T00:40:38;100222.47;;;4.70;89.81
2178;BME280;1095;50.992;6.798;2024-03-25T00:43:25;100224.66;;;4.76;89.46
2178;BME280;1095;50.992;6.798;2024-03-25T00:45:55;100233.44;;;4.88;89.53
2178;BME280;1095;50.992;6.798;2024-03-25T00:48:34;100220.88;;;4.80;89.38
2178;BME280;1095;50.992;6.798;2024-03-25T00:51:05;100223.09;;;4.73;89.38
2178;BME280;1095;50.992;6.798;2024-03-25T00:53:31;100224.66;;;4.76;89.40
2178;BME280;1095;50.992;6.798;2024-03-25T00:55:59;100219.53;;;4.74;89.33
2178;BME280;1095;50.992;6.798;2024-03-25T00:58:25;100212.50;;;4.62;89.81
2178;BME280;1095;50.992;6.798;2024-03-25T01:00:51;100243.31;;;4.84;89.33
2178;BME280;1095;50.992;6.798;2024-03-25T01:03:17;100222.22;;;4.73;89.51
2178;BME280;1095;50.992;6.798;2024-03-25T01:05:46;100218.56;;;4.88;88.83
2178;BME280;1095;50.992;6.798;2024-03-25T01:08:12;100237.84;;;4.87;88.82
2178;BME280;1095;50.992;6.798;2024-03-25T01:10:39;100231.03;;;4.85;89.16
2178;BME280;1095;50.992;6.798;2024-03-25T01:13:07;100237.09;;;4.85;88.40
2178;BME280;1095;50.992;6.798;2024-03-25T01:15:33;100235.00;;;4.90;88.55
2178;BME280;1095;50.992;6.798;2024-03-25T01:17:59;100244.44;;;4.93;88.36
2178;BME280;1095;50.992;6.798;2024-03-25T01:20:25;100244.88;;;4.87;88.32
2178;BME280;1095;50.992;6.798;2024-03-25T01:22:51;100236.47;;;4.94;87.67
2178;BME280;1095;50.992;6.798;2024-03-25T01:25:18;100238.38;;;4.92;87.97
2178;BME280;1095;50.992;6.798;2024-03-25T01:27:43;100243.81;;;5.02;87.73
2178;BME280;1095;50.992;6.798;2024-03-25T01:30:12;100242.22;;;4.99;87.72
2178;BME280;1095;50.992;6.798;2024-03-25T01:32:38;100239.59;;;4.99;87.93
2178;BME280;1095;50.992;6.798;2024-03-25T01:35:06;100252.53;;;4.90;88.39
2178;BME280;1095;50.992;6.798;2024-03-25T01:37:32;100246.13;;;4.81;89.18
2178;BME280;1095;50.992;6.798;2024-03-25T01:39:59;100238.38;;;4.79;88.67
2178;BME280;1095;50.992;6.798;2024-03-25T01:42:24;100245.72;;;4.74;88.92
2178;BME280;1095;50.992;6.798;2024-03-25T01:44:52;100244.06;;;4.73;89.09
2178;BME280;1095;50.992;6.798;2024-03-25T01:47:20;100251.06;;;4.73;88.74
2178;BME280;1095;50.992;6.798;2024-03-25T01:49:47;100241.13;;;4.78;88.41
2178;BME280;1095;50.992;6.798;2024-03-25T01:52:15;100242.78;;;4.79;87.91
2178;BME280;1095;50.992;6.798;2024-03-25T01:54:42;100244.66;;;4.77;87.96
2178;BME280;1095;50.992;6.798;2024-03-25T01:57:08;100246.56;;;4.62;88.78
2178;BME280;1095;50.992;6.798;2024-03-25T01:59:35;100240.19;;;4.53;89.00
2178;BME280;1095;50.992;6.798;2024-03-25T02:02:01;100239.75;;;4.60;88.63
2178;BME280;1095;50.992;6.798;2024-03-25T02:04:31;100241.13;;;4.52;88.54
2178;BME280;1095;50.992;6.798;2024-03-25T02:06:56;100241.97;;;4.53;89.15
2178;BME280;1095;50.992;6.798;2024-03-25T02:09:25;100250.25;;;4.47;88.79
2178;BME280;1095;50.992;6.798;2024-03-25T02:11:52;100258.63;;;4.52;88.73
2178;BME280;1095;50.992;6.798;2024-03-25T02:14:20;100242.91;;;4.52;89.29
2178;BME280;1095;50.992;6.798;2024-03-25T02:16:46;100257.69;;;4.66;88.60
2178;BME280;1095;50.992;6.798;2024-03-25T02:19:14;100248.56;;;4.71;88.04
2178;BME280;1095;50.992;6.798;2024-03-25T02:21:42;100256.63;;;4.81;87.49
2178;BME280;1095;50.992;6.798;2024-03-25T02:24:09;100243.94;;;4.75;87.94
2178;BME280;1095;50.992;6.798;2024-03-25T02:26:37;100247.91;;;4.80;87.53
2178;BME280;1095;50.992;6.798;2024-03-25T02:29:03;100251.81;;;4.75;87.79
2178;BME280;1095;50.992;6.798;2024-03-25T02:31:29;100260.31;;;4.78;87.62
2178;BME280;1095;50.992;6.798;2024-03-25T02:33:56;100256.84;;;4.78;87.39
2178;BME280;1095;50.992;6.798;2024-03-25T02:36:21;100247.41;;;4.75;87.61
2178;BME280;1095;50.992;6.798;2024-03-25T02:38:48;100245.81;;;4.73;87.79
2178;BME280;1095;50.992;6.798;2024-03-25T02:41:13;100243.50;;;4.81;87.89
2178;BME280;1095;50.992;6.798;2024-03-25T02:43:42;100252.31;;;4.80;87.28
2178;BME280;1095;50.992;6.798;2024-03-25T02:46:08;100247.91;;;4.80;87.27
2178;BME280;1095;50.992;6.798;2024-03-25T02:48:34;100235.88;;;4.78;87.40
2178;BME280;1095;50.992;6.798;2024-03-25T02:51:00;100244.25;;;4.83;87.27
2178;BME280;1095;50.992;6.798;2024-03-25T02:53:27;100233.78;;;4.83;87.21
2178;BME280;1095;50.992;6.798;2024-03-25T02:55:52;100240.81;;;4.82;87.06
2178;BME280;1095;50.992;6.798;2024-03-25T02:58:19;100236.09;;;4.75;87.14
2178;BME280;1095;50.992;6.798;2024-03-25T03:00:47;100238.28;;;4.81;86.65
2178;BME280;1095;50.992;6.798;2024-03-25T03:03:14;100232.50;;;4.76;87.14
2178;BME280;1095;50.992;6.798;2024-03-25T03:05:40;100237.56;;;4.66;87.68
2178;BME280;1095;50.992;6.798;2024-03-25T03:08:06;100233.91;;;4.69;87.99
2178;BME280;1095;50.992;6.798;2024-03-25T03:10:32;100225.50;;;4.64;88.11
2178;BME280;1095;50.992;6.798;2024-03-25T03:12:58;100223.63;;;4.66;88.04
2178;BME280;1095;50.992;6.798;2024-03-25T03:15:24;100231.47;;;4.53;88.12
2178;BME280;1095;50.992;6.798;2024-03-25T03:17:52;100225.94;;;4.45;88.98
2178;BME280;1095;50.992;6.798;2024-03-25T03:20:18;100223.75;;;4.39;89.36
2178;BME280;1095;50.992;6.798;2024-03-25T03:22:44;100233.06;;;4.43;88.81
2178;BME280;1095;50.992;6.798;2024-03-25T03:25:10;100225.00;;;4.33;89.05
2178;BME280;1095;50.992;6.798;2024-03-25T03:27:36;100227.06;;;4.28;89.73
2178;BME280;1095;50.992;6.798;2024-03-25T03:30:03;100222.13;;;4.23;89.30
2178;BME280;1095;50.992;6.798;2024-03-25T03:32:29;100223.22;;;4.21;89.67
2178;BME280;1095;50.992;6.798;2024-03-25T03:34:56;100220.38;;;4.11;89.99
2178;BME280;1095;50.992;6.798;2024-03-25T03:37:23;100220.25;;;4.13;90.39
2178;BME280;1095;50.992;6.798;2024-03-25T03:39:48;100226.53;;;4.10;89.91
2178;BME280;1095;50.992;6.798;2024-03-25T03:42:15;100230.94;;;4.10;90.52
2178;BME280;1095;50.992;6.798;2024-03-25T03:44:43;100230.22;;;4.08;90.78
2178;BME280;1095;50.992;6.798;2024-03-25T03:47:10;100227.78;;;4.04;90.21
2178;BME280;1095;50.992;6.798;2024-03-25T03:49:37;100236.41;;;4.07;90.12
2178;BME280;1095;50.992;6.798;2024-03-25T03:52:06;100233.97;;;4.03;90.18
2178;BME280;1095;50.992;6.798;2024-03-25T03:54:31;100237.63;;;4.01;90.38
2178;BME280;1095;50.992;6.798;2024-03-25T03:56:58;100234.91;;;4.02;90.16
2178;BME280;1095;50.992;6.798;2024-03-25T03:59:24;100232.69;;;3.96;90.32
2178;BME280;1095;50.992;6.798;2024-03-25T04:01:50;100234.44;;;3.83;90.62
2178;BME280;1095;50.992;6.798;2024-03-25T04:04:16;100232.34;;;3.75;91.29
2178;BME280;1095;50.992;6.798;2024-03-25T04:06:43;100239.97;;;3.78;91.18
2178;BME280;1095;50.992;6.798;2024-03-25T04:09:10;100241.63;;;3.67;91.31
2178;BME280;1095;50.992;6.798;2024-03-25T04:11:36;100239.31;;;3.62;91.64
2178;BME280;1095;50.992;6.798;2024-03-25T04:14:02;100231.00;;;3.55;91.97
2178;BME280;1095;50.992;6.798;2024-03-25T04:16:29;100227.38;;;3.58;91.90
2178;BME280;1095;50.992;6.798;2024-03-25T04:18:56;100226.72;;;3.54;92.42
2178;BME280;1095;50.992;6.798;2024-03-25T04:21:23;100224.94;;;3.55;92.28
2178;BME280;1095;50.992;6.798;2024-03-25T04:23:48;100227.13;;;3.48;92.70
2178;BME280;1095;50.992;6.798;2024-03-25T04:26:16;100227.50;;;3.42;92.33
2178;BME280;1095;50.992;6.798;2024-03-25T04:28:42;100222.69;;;3.36;92.67
2178;BME280;1095;50.992;6.798;2024-03-25T04:31:09;100218.75;;;3.29;92.87
2178;BME280;1095;50.992;6.798;2024-03-25T04:33:35;100221.03;;;3.21;92.90
2178;BME280;1095;50.992;6.798;2024-03-25T04:36:02;100228.13;;;3.19;93.02
2178;BME280;1095;50.992;6.798;2024-03-25T04:38:27;100233.56;;;3.16;93.23
2178;BME280;1095;50.992;6.798;2024-03-25T04:40:53;100226.00;;;3.11;93.53
2178;BME280;1095;50.992;6.798;2024-03-25T04:43:20;100230.97;;;3.01;93.10
2178;BME280;1095;50.992;6.798;2024-03-25T04:45:46;100229.88;;;2.91;93.43
2178;BME280;1095;50.992;6.798;2024-03-25T04:48:11;100238.66;;;2.90;93.73
2178;BME280;1095;50.992;6.798;2024-03-25T04:50:37;100235.28;;;2.88;93.95
2178;BME280;1095;50.992;6.798;2024-03-25T04:53:03;100231.81;;;2.88;93.88
2178;BME280;1095;50.992;6.798;2024-03-25T04:55:29;100231.06;;;2.86;94.52
2178;BME280;1095;50.992;6.798;2024-03-25T04:57:54;100239.00;;;2.84;94.32
2178;BME280;1095;50.992;6.798;2024-03-25T05:00:21;100237.44;;;2.82;94.38
2178;BME280;1095;50.992;6.798;2024-03-25T05:02:47;100240.63;;;2.72;94.43
2178;BME280;1095;50.992;6.798;2024-03-25T05:05:13;100238.47;;;2.65;94.59
2178;BME280;1095;50.992;6.798;2024-03-25T05:07:39;100231.56;;;2.64;94.88
2178;BME280;1095;50.992;6.798;2024-03-25T05:10:05;100236.41;;;2.56;95.51
2178;BME280;1095;50.992;6.798;2024-03-25T05:12:31;100244.31;;;2.54;95.44
2178;BME280;1095;50.992;6.798;2024-03-25T05:14:56;100241.38;;;2.46;95.51
2178;BME280;1095;50.992;6.798;2024-03-25T05:17:24;100243.09;;;2.45;95.87
2178;BME280;1095;50.992;6.798;2024-03-25T05:19:52;100247.59;;;2.43;95.58
2178;BME280;1095;50.992;6.798;2024-03-25T05:22:18;100245.72;;;2.45;95.58
2178;BME280;1095;50.992;6.798;2024-03-25T05:24:44;100244.25;;;2.41;96.37
2178;BME280;1095;50.992;6.798;2024-03-25T05:27:09;100251.31;;;2.39;95.90
2178;BME280;1095;50.992;6.798;2024-03-25T05:29:35;100248.81;;;2.38;96.09
2178;BME280;1095;50.992;6.798;2024-03-25T05:32:01;100245.53;;;2.34;96.21
2178;BME280;1095;50.992;6.798;2024-03-25T05:34:29;100246.47;;;2.33;96.52
2178;BME280;1095;50.992;6.798;2024-03-25T05:36:55;100253.19;;;2.37;96.95
2178;BME280;1095;50.992;6.798;2024-03-25T05:39:21;100241.03;;;2.36;96.82
2178;BME280;1095;50.992;6.798;2024-03-25T05:41:47;100246.09;;;2.39;96.04
2178;BME280;1095;50.992;6.798;2024-03-25T05:44:18;100248.44;;;2.44;96.19
2178;BME280;1095;50.992;6.798;2024-03-25T05:46:47;100246.47;;;2.47;96.25
2178;BME280;1095;50.992;6.798;2024-03-25T05:49:13;100247.03;;;2.52;96.21
2178;BME280;1095;50.992;6.798;2024-03-25T05:51:40;100248.06;;;2.50;96.26
2178;BME280;1095;50.992;6.798;2024-03-25T05:54:05;100248.63;;;2.55;96.15
2178;BME280;1095;50.992;6.798;2024-03-25T05:56:31;100250.78;;;2.63;96.13
2178;BME280;1095;50.992;6.798;2024-03-25T05:59:00;100256.53;;;2.68;95.88
2178;BME280;1095;50.992;6.798;2024-03-25T06:01:26;100259.53;;;2.76;95.51
2178;BME280;1095;50.992;6.798;2024-03-25T06:03:52;100252.72;;;2.88;95.23
2178;BME280;1095;50.992;6.798;2024-03-25T06:06:18;100254.88;;;2.95;94.82
2178;BME280;1095;50.992;6.798;2024-03-25T06:08:45;100258.22;;;2.97;94.85
2178;BME280;1095;50.992;6.798;2024-03-25T06:11:11;100247.31;;;3.05;95.14
2178;BME280;1095;50.992;6.798;2024-03-25T06:13:37;100239.91;;;3.12;95.15
2178;BME280;1095;50.992;6.798;2024-03-25T06:16:03;100249.78;;;3.21;94.46
2178;BME280;1095;50.992;6.798;2024-03-25T06:18:29;100252.56;;;3.32;94.41
2178;BME280;1095;50.992;6.798;2024-03-25T06:20:55;100246.88;;;3.40;93.21
2178;BME280;1095;50.992;6.798;2024-03-25T06:23:24;100243.00;;;3.45;93.08
2178;BME280;1095;50.992;6.798;2024-03-25T06:25:53;100245.63;;;3.72;93.46
2178;BME280;1095;50.992;6.798;2024-03-25T06:28:19;100240.66;;;4.97;90.23
2178;BME280;1095;50.992;6.798;2024-03-25T06:30:45;100237.66;;;6.34;82.38
2178;BME280;1095;50.992;6.798;2024-03-25T06:33:29;100230.06;;;7.74;77.71
2178;BME280;1095;50.992;6.798;2024-03-25T06:36:13;100221.13;;;8.70;72.61
2178;BME280;1095;50.992;6.798;2024-03-25T06:38:39;100208.44;;;9.34;69.56
2178;BME280;1095;50.992;6.798;2024-03-25T06:41:06;100211.25;;;9.91;65.52
2178;BME280;1095;50.992;6.798;2024-03-25T06:43:32;100210.91;;;10.43;64.00
2178;BME280;1095;50.992;6.798;2024-03-25T06:45:57;100221.38;;;10.05;64.08
2178;BME280;1095;50.992;6.798;2024-03-25T06:48:23;100224.59;;;10.28;63.13
2178;BME280;1095;50.992;6.798;2024-03-25T06:50:53;100227.38;;;10.74;62.65
2178;BME280;1095;50.992;6.798;2024-03-25T06:53:18;100231.69;;;10.75;62.03
2178;BME280;1095;50.992;6.798;2024-03-25T06:55:51;100221.59;;;10.51;61.87
2178;BME280;1095;50.992;6.798;2024-03-25T06:58:18;100231.38;;;10.41;61.70
2178;BME280;1095;50.992;6.798;2024-03-25T07:00:44;100235.28;;;10.36;62.68
2178;BME280;1095;50.992;6.798;2024-03-25T07:03:09;100235.44;;;10.82;60.80
2178;BME280;1095;50.992;6.798;2024-03-25T07:05:35;100239.16;;;10.13;61.52
2178;BME280;1095;50.992;6.798;2024-03-25T07:08:01;100238.06;;;10.25;62.41
2178;BME280;1095;50.992;6.798;2024-03-25T07:10:27;100237.66;;;10.10;61.95
2178;BME280;1095;50.992;6.798;2024-03-25T07:12:52;100236.59;;;10.60;61.46
2178;BME280;1095;50.992;6.798;2024-03-25T07:15:19;100232.66;;;11.56;57.35
2178;BME280;1095;50.992;6.798;2024-03-25T07:17:45;100235.34;;;11.47;57.56
2178;BME280;1095;50.992;6.798;2024-03-25T07:20:11;100235.72;;;11.97;56.17
2178;BME280;1095;50.992;6.798;2024-03-25T07:22:36;100229.50;;;11.88;54.14
2178;BME280;1095;50.992;6.798;2024-03-25T07:25:02;100226.34;;;12.55;54.32
2178;BME280;1095;50.992;6.798;2024-03-25T07:27:28;100224.06;;;12.34;54.21
2178;BME280;1095;50.992;6.798;2024-03-25T07:29:54;100218.53;;;12.53;53.04
2178;BME280;1095;50.992;6.798;2024-03-25T07:32:21;100223.94;;;12.18;53.73
2178;BME280;1095;50.992;6.798;2024-03-25T07:34:46;100218.56;;;12.09;54.39
2178;BME280;1095;50.992;6.798;2024-03-25T07:37:12;100224.72;;;12.36;53.20
2178;BME280;1095;50.992;6.798;2024-03-25T07:39:38;100221.91;;;12.11;54.57
2178;BME280;1095;50.992;6.798;2024-03-25T07:42:04;100231.50;;;11.59;56.51
2178;BME280;1095;50.992;6.798;2024-03-25T07:44:30;100231.00;;;12.35;54.22
2178;BME280;1095;50.992;6.798;2024-03-25T07:46:56;100225.00;;;12.85;52.84
2178;BME280;1095;50.992;6.798;2024-03-25T07:49:23;100232.25;;;12.23;54.01
2178;BME280;1095;50.992;6.798;2024-03-25T07:51:48;100226.06;;;13.00;51.54
2178;BME280;1095;50.992;6.798;2024-03-25T07:54:14;100224.88;;;13.29;51.24
2178;BME280;1095;50.992;6.798;2024-03-25T07:56:40;100224.72;;;12.96;51.31
2178;BME280;1095;50.992;6.798;2024-03-25T07:59:05;100221.59;;;12.67;52.87
2178;BME280;1095;50.992;6.798;2024-03-25T08:01:31;100224.84;;;12.86;53.20
2178;BME280;1095;50.992;6.798;2024-03-25T08:03:56;100232.84;;;12.60;51.82
2178;BME280;1095;50.992;6.798;2024-03-25T08:06:24;100227.78;;;12.49;51.40
2178;BME280;1095;50.992;6.798;2024-03-25T08:08:49;100227.50;;;12.08;53.52
2178;BME280;1095;50.992;6.798;2024-03-25T08:11:15;100231.75;;;12.45;51.75
2178;BME280;1095;50.992;6.798;2024-03-25T08:13:40;100240.09;;;12.50;52.75
2178;BME280;1095;50.992;6.798;2024-03-25T08:16:08;100234.31;;;12.55;52.27
2178;BME280;1095;50.992;6.798;2024-03-25T08:18:34;100231.84;;;12.35;53.64
2178;BME280;1095;50.992;6.798;2024-03-25T08:20:59;100230.50;;;11.60;54.62
2178;BME280;1095;50.992;6.798;2024-03-25T08:23:26;100229.38;;;10.99;55.11
2178;BME280;1095;50.992;6.798;2024-03-25T08:25:52;100230.53;;;11.14;56.54
2178;BME280;1095;50.992;6.798;2024-03-25T08:28:18;100223.63;;;11.67;55.09
2178;BME280;1095;50.992;6.798;2024-03-25T08:30:44;100217.16;;;12.23;54.19
2178;BME280;1095;50.992;6.798;2024-03-25T08:33:09;100215.31;;;12.16;53.29
2178;BME280;1095;50.992;6.798;2024-03-25T08:35:35;100216.03;;;12.26;53.54
2178;BME280;1095;50.992;6.798;2024-03-25T08:38:00;100214.03;;;12.54;51.94
2178;BME280;1095;50.992;6.798;2024-03-25T08:40:27;100220.69;;;12.84;50.72
2178;BME280;1095;50.992;6.798;2024-03-25T08:42:53;100224.81;;;12.26;54.05
2178;BME280;1095;50.992;6.798;2024-03-25T08:45:19;100214.16;;;13.12;51.33
2178;BME280;1095;50.992;6.798;2024-03-25T08:47:44;100221.94;;;12.72;50.68
2178;BME280;1095;50.992;6.798;2024-03-25T08:50:10;100220.56;;;12.33;50.29
2178;BME280;1095;50.992;6.798;2024-03-25T08:52:36;100220.53;;;12.07;53.80
2178;BME280;1095;50.992;6.798;2024-03-25T08:55:02;100225.50;;;11.11;54.23
2178;BME280;1095;50.992;6.798;2024-03-25T08:57:29;100223.25;;;11.62;53.42
2178;BME280;1095;50.992;6.798;2024-03-25T08:59:54;100216.97;;;11.81;54.12
2178;BME280;1095;50.992;6.798;2024-03-25T09:02:20;100218.91;;;11.88;53.66
2178;BME280;1095;50.992;6.798;2024-03-25T09:04:46;100213.19;;;11.48;52.69
2178;BME280;1095;50.992;6.798;2024-03-25T09:07:13;100221.00;;;11.67;52.97
2178;BME280;1095;50.992;6.798;2024-03-25T09:09:39;100213.56;;;12.06;53.94
2178;BME280;1095;50.992;6.798;2024-03-25T09:12:23;100216.88;;;12.52;50.35
2178;BME280;1095;50.992;6.798;2024-03-25T09:14:52;100209.19;;;12.23;51.25
2178;BME280;1095;50.992;6.798;2024-03-25T09:17:18;100217.25;;;11.78;50.91
2178;BME280;1095;50.992;6.798;2024-03-25T09:19:44;100218.63;;;11.82;52.19
2178;BME280;1095;50.992;6.798;2024-03-25T09:22:09;100212.66;;;11.80;51.23
2178;BME280;1095;50.992;6.798;2024-03-25T09:24:35;100201.06;;;11.45;51.95
2178;BME280;1095;50.992;6.798;2024-03-25T09:27:01;100205.28;;;10.93;53.43
2178;BME280;1095;50.992;6.798;2024-03-25T09:29:26;100196.72;;;10.71;55.14
2178;BME280;1095;50.992;6.798;2024-03-25T09:31:53;100212.47;;;10.73;54.66
2178;BME280;1095;50.992;6.798;2024-03-25T09:34:19;100204.34;;;10.47;54.20
2178;BME280;1095;50.992;6.798;2024-03-25T09:36:45;100199.63;;;10.31;54.72
2178;BME280;1095;50.992;6.798;2024-03-25T09:39:10;100194.56;;;10.57;56.76
2178;BME280;1095;50.992;6.798;2024-03-25T09:41:37;100189.94;;;10.96;55.71
2178;BME280;1095;50.992;6.798;2024-03-25T09:44:05;100191.78;;;11.13;54.38
2178;BME280;1095;50.992;6.798;2024-03-25T09:46:31;100193.31;;;11.34;55.02
2178;BME280;1095;50.992;6.798;2024-03-25T09:48:59;100193.44;;;10.59;54.92
2178;BME280;1095;50.992;6.798;2024-03-25T09:51:24;100189.38;;;10.28;55.02
2178;BME280;1095;50.992;6.798;2024-03-25T09:53:50;100182.66;;;10.71;55.71
2178;BME280;1095;50.992;6.798;2024-03-25T09:56:16;100178.53;;;11.13;54.74
2178;BME280;1095;50.992;6.798;2024-03-25T09:58:43;100169.09;;;11.64;54.77
2178;BME280;1095;50.992;6.798;2024-03-25T10:01:09;100179.88;;;11.63;53.16
2178;BME280;1095;50.992;6.798;2024-03-25T10:03:35;100161.22;;;11.37;54.77
2178;BME280;1095;50.992;6.798;2024-03-25T10:06:03;100163.28;;;11.79;54.49
2178;BME280;1095;50.992;6.798;2024-03-25T10:08:28;100163.34;;;11.69;52.16
2178;BME280;1095;50.992;6.798;2024-03-25T10:10:55;100160.09;;;11.57;53.51
2178;BME280;1095;50.992;6.798;2024-03-25T10:13:21;100155.09;;;11.36;52.75
2178;BME280;1095;50.992;6.798;2024-03-25T10:15:47;100155.00;;;11.10;54.01
2178;BME280;1095;50.992;6.798;2024-03-25T10:18:13;100146.94;;;11.30;51.29
2178;BME280;1095;50.992;6.798;2024-03-25T10:20:47;100147.84;;;11.38;50.35
2178;BME280;1095;50.992;6.798;2024-03-25T10:23:14;100138.44;;;11.08;52.25
2178;BME280;1095;50.992;6.798;2024-03-25T10:25:40;100136.94;;;10.78;52.48
2178;BME280;1095;50.992;6.798;2024-03-25T10:28:06;100131.06;;;10.57;52.69
2178;BME280;1095;50.992;6.798;2024-03-25T10:30:31;100131.94;;;11.03;51.75
2178;BME280;1095;50.992;6.798;2024-03-25T10:32:58;100132.50;;;10.97;51.56
2178;BME280;1095;50.992;6.798;2024-03-25T10:35:26;100124.31;;;10.72;51.56
2178;BME280;1095;50.992;6.798;2024-03-25T10:37:55;100115.16;;;10.84;51.41
2178;BME280;1095;50.992;6.798;2024-03-25T10:40:26;100114.06;;;10.59;51.86
2178;BME280;1095;50.992;6.798;2024-03-25T10:43:00;100113.38;;;10.85;50.14
2178;BME280;1095;50.992;6.798;2024-03-25T10:45:31;100108.47;;;11.08;51.06
2178;BME280;1095;50.992;6.798;2024-03-25T10:47:57;100105.75;;;11.35;50.52
2178;BME280;1095;50.992;6.798;2024-03-25T10:50:26;100100.47;;;11.35;49.03
2178;BME280;1095;50.992;6.798;2024-03-25T10:52:54;100108.00;;;10.95;47.88
2178;BME280;1095;50.992;6.798;2024-03-25T10:55:27;100096.59;;;10.94;47.59
2178;BME280;1095;50.992;6.798;2024-03-25T10:57:55;100092.41;;;10.92;48.71
2178;BME280;1095;50.992;6.798;2024-03-25T11:00:22;100091.81;;;10.98;48.12
2178;BME280;1095;50.992;6.798;2024-03-25T11:02:48;100088.19;;;10.99;46.00
2178;BME280;1095;50.992;6.798;2024-03-25T11:05:15;100085.56;;;11.17;46.87
2178;BME280;1095;50.992;6.798;2024-03-25T11:07:41;100087.75;;;10.76;47.24
2178;BME280;1095;50.992;6.798;2024-03-25T11:10:08;100085.78;;;11.23;46.98
2178;BME280;1095;50.992;6.798;2024-03-25T11:12:37;100075.19;;;11.05;46.38
2178;BME280;1095;50.992;6.798;2024-03-25T11:15:05;100070.56;;;11.25;45.04
2178;BME280;1095;50.992;6.798;2024-03-25T11:17:32;100069.06;;;11.23;42.11
2178;BME280;1095;50.992;6.798;2024-03-25T11:20:09;100067.69;;;11.19;43.63
2178;BME280;1095;50.992;6.798;2024-03-25T11:22:36;100062.47;;;10.91;43.74
2178;BME280;1095;50.992;6.798;2024-03-25T11:25:06;100053.00;;;11.06;43.76
2178;BME280;1095;50.992;6.798;2024-03-25T11:27:33;100050.06;;;11.09;44.27
2178;BME280;1095;50.992;6.798;2024-03-25T11:30:03;100053.16;;;11.67;43.40
2178;BME280;1095;50.992;6.798;2024-03-25T11:32:30;100056.19;;;11.72;43.25
2178;BME280;1095;50.992;6.798;2024-03-25T11:34:55;100047.22;;;11.91;43.72
2178;BME280;1095;50.992;6.798;2024-03-25T11:37:21;100046.56;;;11.71;43.62
2178;BME280;1095;50.992;6.798;2024-03-25T11:39:47;100044.94;;;11.08;43.09
2178;BME280;1095;50.992;6.798;2024-03-25T11:42:13;100035.75;;;11.64;44.16
2178;BME280;1095;50.992;6.798;2024-03-25T11:44:39;100032.50;;;11.78;43.22
2178;BME280;1095;50.992;6.798;2024-03-25T11:47:07;100022.31;;;12.18;42.40
2178;BME280;1095;50.992;6.798;2024-03-25T11:49:38;100020.31;;;12.11;43.23
2178;BME280;1095;50.992;6.798;2024-03-25T11:52:06;100016.44;;;11.98;42.03
2178;BME280;1095;50.992;6.798;2024-03-25T11:54:32;100018.81;;;11.83;42.08
2178;BME280;1095;50.992;6.798;2024-03-25T11:56:58;100017.94;;;11.48;40.94
2178;BME280;1095;50.992;6.798;2024-03-25T11:59:24;100005.63;;;11.91;40.53
2178;BME280;1095;50.992;6.798;2024-03-25T12:01:50;100010.81;;;11.49;41.10
2178;BME280;1095;50.992;6.798;2024-03-25T12:04:18;100006.56;;;11.38;42.79
2178;BME280;1095;50.992;6.798;2024-03-25T12:06:44;99994.88;;;11.93;45.12
2178;BME280;1095;50.992;6.798;2024-03-25T12:09:10;99990.22;;;12.37;40.49
2178;BME280;1095;50.992;6.798;2024-03-25T12:11:55;99993.22;;;11.74;39.17
2178;BME280;1095;50.992;6.798;2024-03-25T12:14:21;99985.13;;;12.01;40.75
2178;BME280;1095;50.992;6.798;2024-03-25T12:16:47;99979.75;;;11.85;39.76
2178;BME280;1095;50.992;6.798;2024-03-25T12:19:13;99989.28;;;11.52;40.41
2178;BME280;1095;50.992;6.798;2024-03-25T12:21:40;99984.28;;;12.01;39.96
2178;BME280;1095;50.992;6.798;2024-03-25T12:24:07;99967.22;;;11.77;39.71
2178;BME280;1095;50.992;6.798;2024-03-25T12:26:32;99975.84;;;11.71;40.34
2178;BME280;1095;50.992;6.798;2024-03-25T12:28:58;99962.75;;;12.04;38.59
2178;BME280;1095;50.992;6.798;2024-03-25T12:31:24;99953.16;;;12.11;38.79
2178;BME280;1095;50.992;6.798;2024-03-25T12:33:50;99953.09;;;12.37;36.10
2178;BME280;1095;50.992;6.798;2024-03-25T12:36:15;99947.38;;;12.16;37.10
2178;BME280;1095;50.992;6.798;2024-03-25T12:38:42;99934.63;;;12.19;39.38
2178;BME280;1095;50.992;6.798;2024-03-25T12:41:12;99938.75;;;12.13;38.25
2178;BME280;1095;50.992;6.798;2024-03-25T12:43:42;99936.53;;;12.01;38.17
2178;BME280;1095;50.992;6.798;2024-03-25T12:46:08;99934.88;;;12.00;38.43
2178;BME280;1095;50.992;6.798;2024-03-25T12:48:35;99937.50;;;11.92;37.28
2178;BME280;1095;50.992;6.798;2024-03-25T12:51:04;99933.28;;;11.81;37.99
2178;BME280;1095;50.992;6.798;2024-03-25T12:53:30;99930.56;;;11.99;38.10
2178;BME280;1095;50.992;6.798;2024-03-25T12:55:57;99937.25;;;12.11;37.75
2178;BME280;1095;50.992;6.798;2024-03-25T12:58:23;99925.06;;;11.84;36.31
2178;BME280;1095;50.992;6.798;2024-03-25T13:00:49;99926.28;;;11.98;37.52
2178;BME280;1095;50.992;6.798;2024-03-25T13:03:15;99920.16;;;12.13;37.25
2178;BME280;1095;50.992;6.798;2024-03-25T13:05:43;99912.19;;;11.97;36.75
2178;BME280;1095;50.992;6.798;2024-03-25T13:08:09;99905.22;;;12.04;38.38
2178;BME280;1095;50.992;6.798;2024-03-25T13:10:35;99892.63;;;11.98;36.66
2178;BME280;1095;50.992;6.798;2024-03-25T13:13:02;99894.34;;;12.16;36.13
2178;BME280;1095;50.992;6.798;2024-03-25T13:15:28;99890.97;;;11.97;37.60